Time;durP1;ratioP1;P1;durP2;ratioP2;P2;SDS_P1;SDS_P2;PMS_P1;PMS_P2;Temp;Humidity;BMP_temperature;BMP_pressure;BME280_temperature;BME280_humidity;BME280_pressure;Samples;Min_cycle;Max_cycle;Signal;HPM_P1;HPM_P2
2023/12/15 04:58:20;;;;;;;;;;;;;;;;;;6231844;22;19923;-69
2023/12/15 05:00:47;;;;;;;;;;;;;;;;;;6248305;23;19923;-69
2023/12/15 05:03:14;;;;;;;;;;;;;;;;;;6247686;23;19920;-70
2023/12/15 05:05:43;;;;;;;;;;;;;;;;;;6247783;23;19919;-70
2023/12/15 05:08:10;;;;;;;;;;;;;;;;;;6247916;23;19998;-69
2023/12/15 05:10:37;;;;;;;;;;;;;;;;;;6247716;23;19926;-69
2023/12/15 05:13:04;;;;;;;;;;;;;;;;;;6247896;23;20015;-69
2023/12/15 05:15:31;;;;;;;;;;;;;;;;;;6247800;23;19920;-69
2023/12/15 05:17:57;;;;;;;;;;;;;;;;;;6247525;23;19920;-69
2023/12/15 05:20:24;;;;;;;;;;;;;;;;;;6247574;23;19986;-69
2023/12/15 05:22:51;;;;;;;;;;;;;;;;;;6247495;23;19920;-69
2023/12/15 05:25:18;;;;;;;;;;;;;;;;;;6247290;23;19920;-69
2023/12/15 05:27:45;;;;;;;;;;;;;;;;;;6247045;23;20298;-69
2023/12/15 05:30:12;;;;;;;;;;;;;;;;;;6247500;23;19920;-69
2023/12/15 05:32:39;;;;;;;;;;;;;;;;;;6247341;23;19973;-70
2023/12/15 05:35:06;;;;;;;;;;;;;;;;;;6247272;23;19919;-69
2023/12/15 05:37:33;;;;;;;;;;;;;;;;;;6246682;23;20265;-69
2023/12/15 05:40:00;;;;;;;;;;;;;;;;;;6247391;23;19919;-69
2023/12/15 05:42:27;;;;;;;;;;;;;;;;;;6247321;23;19920;-68
2023/12/15 05:44:54;;;;;;;;;;;;;;;;;;6247144;23;19923;-68
2023/12/15 05:47:20;;;;;;;;;;;;;;;;;;6247173;23;19930;-69
2023/12/15 05:49:47;;;;;;;;;;;;;;;;;;6247108;23;20347;-68
2023/12/15 05:52:15;;;;;;;;;;;;;;;;;;6247172;23;19919;-67
2023/12/15 05:54:41;;;;;;;;;;;;;;;;;;6246951;23;19920;-67
2023/12/15 05:57:08;;;;;;;;;;;;;;;;;;6246677;23;19920;-67
2023/12/15 05:59:35;;;;;;;;;;;;;;;;;;6246670;23;19954;-67
2023/12/15 06:02:02;;;;;;;;;;;;;;;;;;6247041;23;19926;-69
2023/12/15 06:04:29;;;;;;;;;;;;;;;;;;6247005;23;19923;-70
2023/12/15 06:06:56;;;;;;;;;;;;;;;;;;6246895;23;19924;-70
2023/12/15 06:09:23;;;;;;;;;;;;;;;;;;6246985;23;19920;-70
2023/12/15 06:11:50;;;;;;;;;;;;;;;;;;6246552;23;20343;-69
2023/12/15 06:14:18;;;;;;;;;;;;;;;;;;6247379;23;19926;-69
2023/12/15 06:16:44;;;;;;;;;;;;;;;;;;6247085;23;19923;-69
2023/12/15 06:19:11;;;;;;;;;;;;;;;;;;6246777;23;19920;-69
2023/12/15 07:34:21;;;;;;;;;;;;;;;;;;6229952;22;19924;-69
2023/12/15 07:36:48;;;;;;;;;;;;;;;;;;6249718;23;19923;-69
2023/12/15 07:39:20;;;;;;;;;;;;;;;;;;6248804;23;19920;-67
2023/12/15 07:41:47;;;;;;;;;;;;;;;;;;6248646;23;19919;-67
2023/12/15 07:44:14;;;;;;;;;;;;;;;;;;6248489;23;19927;-67
2023/12/15 07:46:41;;;;;;;;;;;;;;;;;;6248975;23;19975;-67
2023/12/15 07:49:08;;;;;;;;;;;;;;;;;;6248195;23;20354;-67
2023/12/15 07:51:35;;;;;;;;;;;;;;;;;;6248317;23;19920;-67
2023/12/15 07:54:02;;;;;;;;;;;;;;;;;;6247871;23;20351;-67
2023/12/15 10:24:29;;;;;;;;;;;;;;;;;;6230715;22;20013;-70
2023/12/15 10:26:56;;;;;;;;;;;;;;;;;;6246517;23;19920;-69
2023/12/15 10:29:24;;;;;;;;;;;;;;;;;;6246845;23;19924;-69
2023/12/15 10:31:51;;;;;;;;;;;;;;;;;;6246816;23;19920;-68
2023/12/15 10:34:18;;;;;;;;;;;;;;;;;;6246263;23;20346;-68
2023/12/15 10:36:46;;;;;;;;;;;;;;;;;;6246783;23;19919;-68
2023/12/15 10:39:13;;;;;;;;;;;;;;;;;;6246649;23;19920;-69
2023/12/15 10:41:39;;;;;;;;;;;;;;;;;;6246271;23;19927;-67
2023/12/15 10:44:06;;;;;;;;;;;;;;;;;;6246938;23;19919;-68
2023/12/15 10:46:33;;;;;;;;;;;;;;;;;;6246692;23;19919;-69
2023/12/15 10:49:01;;;;;;;;;;;;;;;;;;6246760;23;19920;-69
2023/12/15 10:51:28;;;;;;;;;;;;;;;;;;6247155;23;19919;-69
2023/12/15 10:53:56;;;;;;;;;;;;;;;;;;6246990;23;19926;-69
2023/12/15 10:56:23;;;;;;;;;;;;;;;;;;6247360;23;19920;-69
2023/12/15 10:58:50;;;;;;;;;;;;;;;;;;6247022;23;19927;-69
2023/12/15 11:01:17;;;;;;;;;;;;;;;;;;6249260;23;19926;-69
2023/12/15 11:03:43;;;;;;;;;;;;;;;;;;6247424;23;20247;-68
2023/12/15 11:06:10;;;;;;;;;;;;;;;;;;6247078;23;19920;-67
2023/12/15 11:08:37;;;;;;;;;;;;;;;;;;6247075;23;20263;-67
2023/12/15 11:11:04;;;;;;;;;;;;;;;;;;6246698;23;19926;-68
2023/12/15 11:13:31;;;;;;;;;;;;;;;;;;6247051;23;19927;-69
2023/12/15 11:15:58;;;;;;;;;;;;;;;;;;6247095;23;19920;-68
2023/12/15 11:18:25;;;;;;;;;;;;;;;;;;6246436;23;20251;-68
2023/12/15 11:20:52;;;;;;;;;;;;;;;;;;6247134;23;19920;-68
2023/12/15 11:23:19;;;;;;;;;;;;;;;;;;6247578;23;19930;-68
2023/12/15 11:25:45;;;;;;;;;;;;;;;;;;6246700;23;19927;-68
2023/12/15 11:28:11;;;;;;;;;;;;;;;;;;6247048;23;19916;-68
2023/12/15 11:30:39;;;;;;;;;;;;;;;;;;6247022;23;19923;-68
2023/12/15 11:33:07;;;;;;;;;;;;;;;;;;6246836;23;19920;-68
2023/12/15 11:35:34;;;;;;;;;;;;;;;;;;6246616;23;19919;-68
2023/12/15 11:38:00;;;;;;;;;;;;;;;;;;6246519;23;19920;-68
2023/12/15 11:40:29;;;;;;;;;;;;;;;;;;6246432;23;19926;-66
2023/12/15 11:42:56;;;;;;;;;;;;;;;;;;6246471;23;19920;-68
2023/12/15 11:45:23;;;;;;;;;;;;;;;;;;6246576;23;19919;-67
2023/12/15 11:47:50;;;;;;;;;;;;;;;;;;6246021;23;19926;-67
2023/12/15 11:50:19;;;;;;;;;;;;;;;;;;6246142;23;20379;-67
2023/12/15 11:52:46;;;;;;;;;;;;;;;;;;6246002;23;19919;-67
2023/12/15 11:55:13;;;;;;;;;;;;;;;;;;6248421;23;19927;-68
2023/12/15 11:57:40;;;;;;;;;;;;;;;;;;6248382;23;19919;-68
2023/12/15 12:00:09;;;;;;;;;;;;;;;;;;6248237;23;20251;-68
2023/12/15 12:02:36;;;;;;;;;;;;;;;;;;6248356;23;19919;-67
2023/12/15 12:05:05;;;;;;;;;;;;;;;;;;6248517;23;19927;-67
2023/12/15 12:07:32;;;;;;;;;;;;;;;;;;6248436;23;19920;-67
2023/12/15 12:09:59;;;;;;;;;;;;;;;;;;6248110;23;20351;-67
2023/12/15 12:12:26;;;;;;;;;;;;;;;;;;6248503;23;19920;-67
2023/12/15 12:14:53;;;;;;;;;;;;;;;;;;6248402;23;19927;-67
2023/12/15 12:17:20;;;;;;;;;;;;;;;;;;6248157;23;19923;-67
2023/12/15 12:19:47;;;;;;;;;;;;;;;;;;6247809;23;20331;-67
2023/12/15 12:22:14;;;;;;;;;;;;;;;;;;6248296;23;19986;-67
2023/12/15 12:24:41;;;;;;;;;;;;;;;;;;6248031;23;19920;-67
2023/12/15 12:27:08;;;;;;;;;;;;;;;;;;6248032;23;19919;-67
2023/12/15 12:29:37;;;;;;;;;;;;;;;;;;6248096;23;19920;-68
2023/12/15 12:32:05;;;;;;;;;;;;;;;;;;6248030;23;19920;-68
2023/12/15 12:34:32;;;;;;;;;;;;;;;;;;6247887;23;20302;-68
2023/12/15 12:36:59;;;;;;;;;;;;;;;;;;6247979;23;19928;-68
2023/12/15 12:39:27;;;;;;;;;;;;;;;;;;6249124;23;20009;-68
2023/12/15 12:41:54;;;;;;;;;;;;;;;;;;6248926;23;20365;-68
2023/12/15 12:44:21;;;;;;;;;;;;;;;;;;6248509;23;20354;-68
2023/12/15 12:46:48;;;;;;;;;;;;;;;;;;6249015;23;19927;-66
2023/12/15 12:49:15;;;;;;;;;;;;;;;;;;6248970;23;20228;-67
2023/12/15 12:51:42;;;;;;;;;;;;;;;;;;6247772;23;19920;-67
2023/12/15 12:54:09;;;;;;;;;;;;;;;;;;6247309;23;20343;-67
2023/12/15 12:56:36;;;;;;;;;;;;;;;;;;6247684;23;19927;-67
2023/12/15 12:59:03;;;;;;;;;;;;;;;;;;6247544;23;19920;-67
2023/12/15 13:01:29;;;;;;;;;;;;;;;;;;6247633;23;19923;-68
2023/12/15 13:03:56;;;;;;;;;;;;;;;;;;6247160;23;20311;-68
2023/12/15 13:06:23;;;;;;;;;;;;;;;;;;6247492;23;19926;-67
2023/12/15 13:08:50;;;;;;;;;;;;;;;;;;6247475;23;19919;-67
2023/12/15 13:11:17;;;;;;;;;;;;;;;;;;6247504;23;19923;-67
2023/12/15 15:47:02;;;;;;;;;;;;;;;;;;6226924;22;20254;-71
2023/12/15 15:49:29;;;;;;;;;;;;;;;;;;6248562;23;19923;-71
2023/12/15 15:51:57;;;;;;;;;;;;;;;;;;6248496;23;19919;-71
2023/12/15 15:54:23;;;;;;;;;;;;;;;;;;6248527;23;19920;-71
2023/12/15 15:56:50;;;;;;;;;;;;;;;;;;6248538;23;19919;-69
2023/12/15 15:59:17;;;;;;;;;;;;;;;;;;6249680;23;19923;-70
2023/12/15 16:01:44;;;;;;;;;;;;;;;;;;6247949;23;19919;-71
2023/12/15 16:04:11;;;;;;;;;;;;;;;;;;6248300;23;19920;-70
2023/12/15 16:06:38;;;;;;;;;;;;;;;;;;6247804;23;20317;-70
2023/12/15 16:09:06;;;;;;;;;;;;;;;;;;6248362;23;19924;-70
2023/12/15 16:11:33;;;;;;;;;;;;;;;;;;6248053;23;19959;-69
2023/12/15 16:14:00;;;;;;;;;;;;;;;;;;6248211;23;19927;-69
2023/12/15 16:16:27;;;;;;;;;;;;;;;;;;6248193;23;19931;-69
2023/12/15 16:18:54;;;;;;;;;;;;;;;;;;6248101;23;19919;-69
2023/12/15 16:21:21;;;;;;;;;;;;;;;;;;6248147;23;19932;-70
2023/12/15 16:23:48;;;;;;;;;;;;;;;;;;6248494;23;19971;-69
2023/12/15 16:26:16;;;;;;;;;;;;;;;;;;6248008;23;19923;-70
2023/12/15 16:28:43;;;;;;;;;;;;;;;;;;6247972;23;19926;-69
2023/12/15 16:31:10;;;;;;;;;;;;;;;;;;6247589;23;20301;-70
2023/12/15 16:33:36;;;;;;;;;;;;;;;;;;6247651;23;19924;-70
2023/12/15 16:36:03;;;;;;;;;;;;;;;;;;6247895;23;19926;-70
2023/12/15 16:38:30;;;;;;;;;;;;;;;;;;6247878;23;19919;-70
2023/12/15 16:40:57;;;;;;;;;;;;;;;;;;6247492;23;20362;-69
2023/12/15 16:43:24;;;;;;;;;;;;;;;;;;6247846;23;19920;-69
2023/12/15 16:45:51;;;;;;;;;;;;;;;;;;6247782;23;19919;-70
2023/12/15 16:48:18;;;;;;;;;;;;;;;;;;6247787;23;20354;-69
2023/12/15 16:50:45;;;;;;;;;;;;;;;;;;6247624;23;20298;-71
2023/12/15 16:53:12;;;;;;;;;;;;;;;;;;6247951;23;19920;-70
2023/12/15 16:55:38;;;;;;;;;;;;;;;;;;6247765;23;19926;-70
2023/12/15 16:58:06;;;;;;;;;;;;;;;;;;6247832;23;19926;-69
2023/12/15 17:00:33;;;;;;;;;;;;;;;;;;6247713;23;20094;-69
2023/12/15 17:03:00;;;;;;;;;;;;;;;;;;6247790;23;19924;-70
2023/12/15 17:05:27;;;;;;;;;;;;;;;;;;6247683;23;19919;-70
2023/12/15 17:07:53;;;;;;;;;;;;;;;;;;6247630;23;20258;-70
2023/12/15 17:10:20;;;;;;;;;;;;;;;;;;6247824;23;19927;-71
2023/12/15 17:12:47;;;;;;;;;;;;;;;;;;6247873;23;19923;-71
2023/12/15 17:15:14;;;;;;;;;;;;;;;;;;6247547;23;19922;-71
2023/12/15 17:17:41;;;;;;;;;;;;;;;;;;6247112;23;20369;-71
2023/12/15 17:20:08;;;;;;;;;;;;;;;;;;6247409;23;19923;-71
2023/12/15 17:22:35;;;;;;;;;;;;;;;;;;6247505;23;19927;-71
2023/12/15 17:25:02;;;;;;;;;;;;;;;;;;6247532;23;19919;-71
2023/12/15 17:27:29;;;;;;;;;;;;;;;;;;6247423;23;19920;-73
2023/12/15 17:29:56;;;;;;;;;;;;;;;;;;6247018;23;20366;-72
2023/12/15 17:32:23;;;;;;;;;;;;;;;;;;6247504;23;19919;-72
2023/12/15 17:34:50;;;;;;;;;;;;;;;;;;6247428;23;19926;-72
2023/12/15 17:37:17;;;;;;;;;;;;;;;;;;6246888;23;20255;-72
2023/12/15 17:39:44;;;;;;;;;;;;;;;;;;6247337;23;19919;-72
2023/12/15 17:42:12;;;;;;;;;;;;;;;;;;6246992;23;19919;-72
2023/12/15 17:44:39;;;;;;;;;;;;;;;;;;6247306;23;20224;-72
2023/12/15 17:47:06;;;;;;;;;;;;;;;;;;6246985;23;19926;-72
2023/12/15 17:49:33;;;;;;;;;;;;;;;;;;6247396;23;19919;-72
2023/12/15 17:52:01;;;;;;;;;;;;;;;;;;6247327;23;19919;-72
2023/12/15 17:54:28;;;;;;;;;;;;;;;;;;6247622;23;20015;-71
2023/12/15 17:56:55;;;;;;;;;;;;;;;;;;6247558;23;20208;-72
2023/12/15 17:59:22;;;;;;;;;;;;;;;;;;6247544;23;19923;-72
2023/12/15 18:01:48;;;;;;;;;;;;;;;;;;6247436;23;19967;-72
2023/12/15 18:04:15;;;;;;;;;;;;;;;;;;6247308;23;19919;-72
2023/12/15 18:06:42;;;;;;;;;;;;;;;;;;6247165;23;20255;-72
2023/12/15 18:09:10;;;;;;;;;;;;;;;;;;6247444;23;19927;-73
2023/12/15 18:11:38;;;;;;;;;;;;;;;;;;6247230;23;19919;-72
2023/12/15 18:14:09;;;;;;;;;;;;;;;;;;6247490;23;19920;-72
2023/12/15 18:16:36;;;;;;;;;;;;;;;;;;6247238;23;19919;-72
2023/12/15 18:19:03;;;;;;;;;;;;;;;;;;6247269;23;20255;-72
2023/12/15 18:21:30;;;;;;;;;;;;;;;;;;6247158;23;19919;-72
2023/12/15 18:23:56;;;;;;;;;;;;;;;;;;6247332;23;19920;-71
2023/12/15 18:26:23;;;;;;;;;;;;;;;;;;6247247;23;19919;-72
2023/12/15 18:28:50;;;;;;;;;;;;;;;;;;6247164;23;19920;-72
2023/12/15 18:31:17;;;;;;;;;;;;;;;;;;6247195;23;19952;-73
2023/12/15 18:33:44;;;;;;;;;;;;;;;;;;6247120;23;19920;-72
2023/12/15 18:36:12;;;;;;;;;;;;;;;;;;6246830;23;20339;-72
2023/12/15 18:38:39;;;;;;;;;;;;;;;;;;6247161;23;19931;-73
2023/12/15 18:41:06;;;;;;;;;;;;;;;;;;6247344;23;19926;-73
2023/12/15 18:43:32;;;;;;;;;;;;;;;;;;6247120;23;19920;-72
2023/12/15 18:45:59;;;;;;;;;;;;;;;;;;6247281;23;19920;-72
2023/12/15 18:48:26;;;;;;;;;;;;;;;;;;6246628;23;20327;-72
2023/12/15 18:50:55;;;;;;;;;;;;;;;;;;6246922;23;20339;-73
2023/12/15 18:53:22;;;;;;;;;;;;;;;;;;6247153;23;19923;-72
2023/12/15 18:55:49;;;;;;;;;;;;;;;;;;6247092;23;19947;-72
2023/12/15 18:58:16;;;;;;;;;;;;;;;;;;6246888;23;19927;-73
2023/12/15 19:00:43;;;;;;;;;;;;;;;;;;6246965;23;19943;-73
2023/12/15 19:03:10;;;;;;;;;;;;;;;;;;6249207;23;19919;-73
2023/12/15 19:05:37;;;;;;;;;;;;;;;;;;6251502;23;19919;-71
2023/12/15 19:08:04;;;;;;;;;;;;;;;;;;6250629;23;20255;-70
2023/12/15 19:10:31;;;;;;;;;;;;;;;;;;6250595;23;19920;-71
2023/12/15 19:12:58;;;;;;;;;;;;;;;;;;6250400;23;20259;-71
2023/12/15 19:15:25;;;;;;;;;;;;;;;;;;6250513;23;19926;-71
2023/12/15 19:17:53;;;;;;;;;;;;;;;;;;6250410;23;19983;-71
2023/12/15 19:20:19;;;;;;;;;;;;;;;;;;6250360;23;19970;-70
2023/12/15 19:22:48;;;;;;;;;;;;;;;;;;6250446;23;20147;-71
2023/12/15 19:25:16;;;;;;;;;;;;;;;;;;6251047;23;19920;-71
2023/12/15 19:27:43;;;;;;;;;;;;;;;;;;6250660;23;19919;-71
2023/12/15 19:30:10;;;;;;;;;;;;;;;;;;6250795;23;19930;-71
2023/12/15 19:32:39;;;;;;;;;;;;;;;;;;6250650;23;19919;-71
2023/12/15 19:35:06;;;;;;;;;;;;;;;;;;6250455;23;19920;-71
2023/12/15 19:37:33;;;;;;;;;;;;;;;;;;6250342;23;19928;-74
2023/12/15 19:40:02;;;;;;;;;;;;;;;;;;6250412;23;19927;-73
2023/12/15 19:42:31;;;;;;;;;;;;;;;;;;6250501;23;19935;-74
2023/12/15 19:44:58;;;;;;;;;;;;;;;;;;6250303;23;20397;-73
2023/12/15 19:47:25;;;;;;;;;;;;;;;;;;6250225;23;19919;-74
2023/12/15 19:49:52;;;;;;;;;;;;;;;;;;6250552;23;19919;-73
2023/12/15 19:52:19;;;;;;;;;;;;;;;;;;6250426;23;19930;-72
2023/12/15 19:54:46;;;;;;;;;;;;;;;;;;6250137;23;19919;-72
2023/12/15 19:57:13;;;;;;;;;;;;;;;;;;6250938;23;19927;-71
2023/12/15 19:59:40;;;;;;;;;;;;;;;;;;6250842;23;19999;-71
2023/12/15 20:02:09;;;;;;;;;;;;;;;;;;6250592;23;19920;-71
2023/12/15 20:04:36;;;;;;;;;;;;;;;;;;6250765;23;19982;-71
2023/12/15 20:07:03;;;;;;;;;;;;;;;;;;6250494;23;19924;-71
2023/12/15 20:09:30;;;;;;;;;;;;;;;;;;6250370;23;20347;-71
2023/12/15 20:11:57;;;;;;;;;;;;;;;;;;6250560;23;19920;-71
2023/12/15 20:14:24;;;;;;;;;;;;;;;;;;6249065;23;19927;-73
2023/12/15 20:16:51;;;;;;;;;;;;;;;;;;6248923;23;19919;-72
2023/12/15 20:19:18;;;;;;;;;;;;;;;;;;6248940;23;19919;-71
2023/12/15 20:21:45;;;;;;;;;;;;;;;;;;6248982;23;19920;-72
2023/12/15 20:24:12;;;;;;;;;;;;;;;;;;6248794;23;19920;-72
2023/12/15 20:26:39;;;;;;;;;;;;;;;;;;6248830;23;19923;-71
2023/12/15 20:29:06;;;;;;;;;;;;;;;;;;6248559;23;19920;-71
2023/12/15 20:31:33;;;;;;;;;;;;;;;;;;6248786;23;19959;-72
2023/12/15 20:34:01;;;;;;;;;;;;;;;;;;6248326;23;19962;-72
2023/12/15 20:36:28;;;;;;;;;;;;;;;;;;6248351;23;19942;-72
2023/12/15 20:38:55;;;;;;;;;;;;;;;;;;6248178;23;19973;-72
2023/12/15 20:41:22;;;;;;;;;;;;;;;;;;6248618;23;20232;-71
2023/12/15 20:43:49;;;;;;;;;;;;;;;;;;6248651;23;19919;-71
2023/12/15 20:46:16;;;;;;;;;;;;;;;;;;6248013;23;20370;-71
2023/12/15 20:48:43;;;;;;;;;;;;;;;;;;6248909;23;19966;-71
2023/12/15 20:51:10;;;;;;;;;;;;;;;;;;6248781;23;20355;-71
2023/12/15 20:53:37;;;;;;;;;;;;;;;;;;6248757;23;19920;-72
2023/12/15 20:56:04;;;;;;;;;;;;;;;;;;6248927;23;20263;-72
2023/12/15 20:58:31;;;;;;;;;;;;;;;;;;6249064;23;19998;-72
2023/12/15 21:00:58;;;;;;;;;;;;;;;;;;6248326;23;20283;-72
2023/12/15 21:03:25;;;;;;;;;;;;;;;;;;6249113;23;19925;-71
2023/12/15 21:05:52;;;;;;;;;;;;;;;;;;6248753;23;19999;-73
2023/12/15 21:08:19;;;;;;;;;;;;;;;;;;6248830;23;20068;-72
2023/12/15 21:10:47;;;;;;;;;;;;;;;;;;6248709;23;19974;-72
2023/12/15 21:13:15;;;;;;;;;;;;;;;;;;6248415;23;19920;-72
2023/12/15 21:15:42;;;;;;;;;;;;;;;;;;6248062;23;19919;-72
2023/12/15 21:18:09;;;;;;;;;;;;;;;;;;6247655;23;20239;-72
2023/12/15 21:20:36;;;;;;;;;;;;;;;;;;6248081;23;19959;-72
2023/12/15 21:23:03;;;;;;;;;;;;;;;;;;6248363;23;19923;-72
2023/12/15 21:25:30;;;;;;;;;;;;;;;;;;6247379;23;20350;-72
2023/12/15 21:27:57;;;;;;;;;;;;;;;;;;6247730;23;19920;-73
2023/12/15 21:30:24;;;;;;;;;;;;;;;;;;6247953;23;19920;-72
2023/12/15 21:32:50;;;;;;;;;;;;;;;;;;6248085;23;19920;-73
2023/12/15 21:35:17;;;;;;;;;;;;;;;;;;6247984;23;19926;-73
2023/12/15 21:37:44;;;;;;;;;;;;;;;;;;6247949;23;19942;-72
2023/12/15 21:40:11;;;;;;;;;;;;;;;;;;6248109;23;19920;-72
2023/12/15 21:42:40;;;;;;;;;;;-1.40;99.90;;;;;;6247966;23;19926;-72
2023/12/15 21:45:08;;;;;;;;;;;1.80;99.90;;;;;;6247109;23;20335;-72
2023/12/15 21:47:34;;;;;;;;;;;1.70;99.90;;;;;;6247115;23;19927;-72
2023/12/15 21:50:01;;;;;;;;;;;1.70;99.90;;;;;;6247232;23;19943;-73
2023/12/15 21:52:32;;;;;;;;;;;1.60;99.90;;;;;;6246950;23;20251;-73
2023/12/15 21:54:59;;;;;;;;;;;1.60;99.90;;;;;;6247320;23;19919;-73
2023/12/15 21:57:25;;;;;;;;;;;1.60;99.90;;;;;;6247210;23;19926;-72
2023/12/15 21:59:53;;;;;;;;;;;1.60;99.90;;;;;;6247438;23;19920;-73
2023/12/15 22:02:20;;;;;;;;;;;1.60;99.90;;;;;;6247261;23;19923;-73
2023/12/15 22:04:47;;;;;;;;;;;1.70;99.90;;;;;;6247220;23;19927;-73
2023/12/15 22:07:13;;;;;;;;;;;1.60;99.90;;;;;;6247183;23;19919;-72
2023/12/15 22:09:40;;;;;;;;;;;1.70;99.90;;;;;;6247215;23;19927;-72
2023/12/15 22:12:07;;;;;;;;;;;1.60;99.90;;;;;;6246980;23;19942;-73
2023/12/15 22:14:34;;;;;;;;;;;1.70;99.90;;;;;;6247116;23;19920;-73
2023/12/15 22:17:02;;;;;;;;;;;1.60;99.90;;;;;;6246833;23;19919;-73
2023/12/15 22:19:28;;;;;;;;;;;1.60;99.90;;;;;;6247101;23;19998;-73
2023/12/15 22:21:55;;;;;;;;;;;1.60;99.90;;;;;;6246921;23;19926;-73
2023/12/15 22:24:22;;;;;;;;;;;1.60;99.90;;;;;;6247046;23;19924;-73
2023/12/15 22:26:48;;;;;;;;;;;;;;;;;;6246883;23;19919;-73
2023/12/15 22:29:15;;;;;;;;;;;;;;;;;;6246658;23;19920;-73
2023/12/15 22:31:43;;;;;;;;;;;;;;;;;;6246866;23;19919;-73
2023/12/15 22:34:10;;;;;;;;;;;;;;;;;;6247015;23;20007;-73
2023/12/15 22:36:37;;;;;;;;;;;;;;;;;;6246361;23;20255;-73
2023/12/15 22:39:04;;;;;;;;;;;;;;;;;;6246684;23;20339;-73
2023/12/15 22:41:31;;;;;;;;;;;;;;;;;;6246469;23;19969;-73
2023/12/15 22:43:59;;;;;;;;;;;;;;;;;;6247009;23;19924;-73
2023/12/15 22:46:26;;;;;;;;;;;;;;;;;;6246425;23;20309;-73
2023/12/15 22:48:53;;;;;;;;;;;;;;;;;;6246527;23;19970;-72
2023/12/15 22:51:20;;;;;;;;;;;;;;;;;;6247094;23;19919;-72
2023/12/15 22:53:46;;;;;;;;;;;;;;;;;;6246406;23;20374;-73
2023/12/15 22:56:13;;;;;;;;;;;;;;;;;;6246884;23;19923;-73
2023/12/15 22:58:40;;;;;;;;;;;;;;;;;;6246711;23;19930;-73
2023/12/15 23:01:08;;;;;;;;;;;;;;;;;;6246819;23;20002;-73
2023/12/15 23:03:35;;;;;;;;;;;;;;;;;;6247155;23;19974;-73
2023/12/15 23:06:03;;;;;;;;;;;;;;;;;;6246325;23;20327;-73
2023/12/15 23:08:30;;;;;;;;;;;;;;;;;;6246652;23;20006;-71
2023/12/15 23:10:57;;;;;;;;;;;;;;;;;;6246301;23;20336;-71
2023/12/15 23:13:24;;;;;;;;;;;;;;;;;;6246660;23;19920;-71
2023/12/15 23:15:51;;;;;;;;;;;;;;;;;;6246623;23;19924;-71
2023/12/15 23:18:18;;;;;;;;;;;;;;;;;;6246657;23;19927;-71
2023/12/15 23:20:45;;;;;;;;;;;;;;;;;;6247656;23;19923;-71
2023/12/15 23:23:12;;;;;;;;;;;;;;;;;;6246148;23;20342;-71
2023/12/15 23:25:39;;;;;;;;;;;;;;;;;;6246454;23;19920;-72
2023/12/15 23:28:06;;;;;;;;;;;;;;;;;;6246183;23;20314;-71
2023/12/15 23:30:33;;;;;;;;;;;;;;;;;;6247693;23;19926;-71
2023/12/15 23:33:00;;;;;;;;;;;;;;;;;;6246122;23;19919;-72
2023/12/15 23:35:27;;;;;;;;;;;;;;;;;;6246458;23;19919;-72
2023/12/15 23:37:54;;;;;;;;;;;;;;;;;;6246509;23;19920;-72
2023/12/15 23:40:21;;;;;;;;;;;;;;;;;;6246254;23;19923;-73
2023/12/15 23:42:47;;;;;;;;;;;;;;;;;;6246501;23;19919;-73
2023/12/15 23:45:14;;;;;;;;;;;;;;;;;;6246514;23;19926;-73
2023/12/15 23:47:41;;;;;;;;;;;;;;;;;;6246134;23;19924;-73
2023/12/15 23:50:10;;;;;;;;;;;;;;;;;;6247303;23;19926;-76
2023/12/15 23:52:37;;;;;;;;;;;;;;;;;;6248355;23;19998;-75
2023/12/15 23:55:04;;;;;;;;;;;;;;;;;;6247850;23;20339;-75
2023/12/15 23:57:31;;;;;;;;;;;;;;;;;;6248206;23;19954;-75
2023/12/15 23:59:57;;;;;;;;;;;;;;;;;;6248301;23;19919;-75
